Time;durP1;ratioP1;P1;durP2;ratioP2;P2;SDS_P1;SDS_P2;PMS_P1;PMS_P2;Temp;Humidity;BMP_temperature;BMP_pressure;BME280_temperature;BME280_humidity;BME280_pressure;Samples;Min_cycle;Max_cycle;Signal;HPM_P1;HPM_P2
2023/06/25 00:01:54;;;;;;;;;;;;;;;16.62;53.94;100606.59;5054696;28;1040;-57
2023/06/25 00:04:21;;;;;;;;;;;;;;;16.48;53.98;100613.75;5050976;28;1151;-56
2023/06/25 00:06:46;;;;;;;;;;;;;;;16.40;54.29;100618.69;5058561;28;1124;-56
2023/06/25 00:09:12;;;;;;;;;;;;;;;16.48;53.75;100606.34;5047522;28;1970;-56
2023/06/25 00:11:37;;;;;;;;;;;;;;;16.85;55.09;100601.59;5039368;28;1164;-57
2023/06/25 00:14:03;;;;;;;;;;;;;;;17.61;56.12;100603.19;5050422;28;1164;-54
2023/06/25 00:16:29;;;;;;;;;;;;;;;17.16;56.09;100599.56;5059233;28;1159;-55
2023/06/25 00:18:55;;;;;;;;;;;;;;;16.92;55.65;100599.41;5058753;28;1092;-54
2023/06/25 00:21:21;;;;;;;;;;;;;;;16.85;55.35;100601.59;5045463;28;1009;-56
2023/06/25 00:23:46;;;;;;;;;;;;;;;16.75;54.93;100597.75;5058760;28;1143;-54
2023/06/25 00:26:12;;;;;;;;;;;;;;;16.69;54.73;100598.91;5058560;28;1040;-56
2023/06/25 00:28:37;;;;;;;;;;;;;;;16.72;54.41;100592.84;5058798;28;1980;-56
2023/06/25 00:31:04;;;;;;;;;;;;;;;16.67;54.23;100595.59;5058378;28;1103;-56
2023/06/25 00:33:32;;;;;;;;;;;;;;;16.67;53.97;100598.34;5047493;28;1130;-56
2023/06/25 00:35:57;;;;;;;;;;;;;;;16.48;54.46;100600.03;5056988;28;1044;-55
2023/06/25 00:38:23;;;;;;;;;;;;;;;16.48;54.09;100600.03;5058973;28;1176;-54
2023/06/25 00:40:49;;;;;;;;;;;;;;;16.41;54.28;100597.56;5058672;28;1195;-55
2023/06/25 00:43:15;;;;;;;;;;;;;;;16.41;53.96;100598.41;5058464;28;1120;-55
2023/06/25 00:45:44;;;;;;;;;;;;;;;17.17;55.78;100601.22;5040115;28;1238;-55
2023/06/25 00:48:10;;;;;;;;;;;;;;;17.40;56.31;100596.16;5020578;28;1902;-55
2023/06/25 00:50:35;;;;;;;;;;;;;;;17.10;55.88;100604.25;5023733;28;1788;-54
2023/06/25 00:53:02;;;;;;;;;;;;;;;16.94;55.33;100605.41;5058229;28;1202;-54
2023/06/25 00:55:27;;;;;;;;;;;;;;;16.81;54.96;100606.00;5040120;28;1214;-55
2023/06/25 00:57:55;;;;;;;;;;;;;;;16.74;54.75;100612.59;5045508;28;1136;-54
2023/06/25 01:00:24;;;;;;;;;;;;;;;16.63;54.69;100602.72;5044990;28;973;-54
2023/06/25 01:02:50;;;;;;;;;;;;;;;16.65;54.47;100608.78;5041018;28;1036;-53
2023/06/25 01:05:15;;;;;;;;;;;;;;;16.61;54.36;100604.94;5039930;28;1557;-55
2023/06/25 01:07:43;;;;;;;;;;;;;;;16.46;54.46;100608.53;5050961;28;1972;-54
2023/06/25 01:10:10;;;;;;;;;;;;;;;16.53;54.02;100603.56;5039672;28;1407;-56
2023/06/25 01:12:36;;;;;;;;;;;;;;;16.48;53.74;100608.25;5040143;28;1807;-55
2023/06/25 01:15:01;;;;;;;;;;;;;;;16.42;54.01;100596.47;5057901;28;1115;-55
2023/06/25 01:17:28;;;;;;;;;;;;;;;16.36;53.84;100595.66;5057649;28;1148;-54
2023/06/25 01:19:54;;;;;;;;;;;;;;;17.22;55.66;100597.63;5046365;28;1044;-55
2023/06/25 01:22:23;;;;;;;;;;;;;;;17.40;56.39;100608.00;5039661;28;1036;-53
2023/06/25 01:24:49;;;;;;;;;;;;;;;16.93;56.48;100604.59;5057387;28;1126;-56
2023/06/25 01:27:16;;;;;;;;;;;;;;;16.83;55.64;100603.78;5057401;28;1063;-57
2023/06/25 01:29:41;;;;;;;;;;;;;;;16.70;55.36;100594.22;5039943;28;1981;-56
2023/06/25 01:32:07;;;;;;;;;;;;;;;16.70;54.61;100597.78;5057822;28;1107;-55
2023/06/25 01:34:32;;;;;;;;;;;;;;;16.76;54.44;100593.94;5026240;28;1056;-56
2023/06/25 01:36:58;;;;;;;;;;;;;;;16.56;54.62;100596.72;5057102;28;1144;-56
2023/06/25 01:39:24;;;;;;;;;;;;;;;16.48;54.35;100587.13;5057005;28;1143;-57
2023/06/25 01:41:49;;;;;;;;;;;;;;;16.50;54.13;100584.94;5057903;28;1060;-56
2023/06/25 01:44:16;;;;;;;;;;;;;;;16.45;54.25;100587.66;5050990;28;1016;-56
2023/06/25 01:46:41;;;;;;;;;;;;;;;16.39;54.01;100580.56;5032153;28;1193;-56
2023/06/25 01:49:07;;;;;;;;;;;;;;;17.38;55.85;100593.69;5056877;28;1907;-56
2023/06/25 01:51:32;;;;;;;;;;;;;;;17.28;56.12;100593.75;5056996;28;1170;-57
2023/06/25 01:53:58;;;;;;;;;;;;;;;16.99;55.65;100591.69;5057090;28;1043;-56
2023/06/25 01:56:24;;;;;;;;;;;;;;;16.78;55.50;100590.91;5056657;28;1075;-56
2023/06/25 01:58:53;;;;;;;;;;;;;;;16.81;54.58;100600.50;5025794;28;1538;-56
2023/06/25 02:01:20;;;;;;;;;;;;;;;16.75;54.63;100600.50;5039068;28;1281;-56
2023/06/25 02:03:45;;;;;;;;;;;;;;;16.58;54.52;100600.03;5038699;28;1124;-56
2023/06/25 02:06:11;;;;;;;;;;;;;;;16.58;54.11;100595.34;5039166;28;1454;-56
2023/06/25 02:08:36;;;;;;;;;;;;;;;16.54;54.12;100604.41;5032127;28;1963;-55
2023/06/25 02:11:02;;;;;;;;;;;;;;;16.52;54.00;100609.34;5032381;28;1524;-56
2023/06/25 02:13:27;;;;;;;;;;;;;;;16.36;54.14;100614.84;5056692;28;1148;-56
2023/06/25 02:15:53;;;;;;;;;;;;;;;16.39;54.05;100606.06;5038753;28;1148;-53
2023/06/25 02:18:18;;;;;;;;;;;;;;;17.37;56.01;100608.53;5056737;28;1194;-55
2023/06/25 02:20:44;;;;;;;;;;;;;;;17.52;56.02;100609.56;5038304;28;1076;-57
2023/06/25 02:23:09;;;;;;;;;;;;;;;17.13;56.02;100607.56;5042955;28;1096;-57
2023/06/25 02:25:35;;;;;;;;;;;;;;;16.87;55.61;100607.63;5057004;28;1008;-57
2023/06/25 02:28:00;;;;;;;;;;;;;;;16.78;55.19;100618.34;5056549;28;1978;-56
2023/06/25 02:30:26;;;;;;;;;;;;;;;16.73;54.66;100621.09;5038628;28;1159;-56
2023/06/25 02:32:51;;;;;;;;;;;;;;;16.68;54.68;100613.72;5049586;28;1194;-56
2023/06/25 02:35:17;;;;;;;;;;;;;;;16.68;54.27;100613.72;5031931;28;1283;-57
2023/06/25 02:37:43;;;;;;;;;;;;;;;16.55;54.10;100615.13;5056723;28;1056;-57
2023/06/25 02:40:09;;;;;;;;;;;;;;;16.55;54.03;100617.88;5056465;28;1068;-57
2023/06/25 02:42:35;;;;;;;;;;;;;;;16.50;53.96;100614.31;5056384;28;1229;-57
2023/06/25 02:45:00;;;;;;;;;;;;;;;16.54;53.71;100607.16;5055792;28;1141;-57
2023/06/25 02:47:27;;;;;;;;;;;;;;;16.42;53.80;100622.00;5055717;28;1028;-57
2023/06/25 02:49:52;;;;;;;;;;;;;;;16.37;53.90;100619.25;5056006;28;1986;-57
2023/06/25 02:52:18;;;;;;;;;;;;;;;17.29;56.05;100611.88;5038217;28;1438;-57
2023/06/25 02:54:43;;;;;;;;;;;;;;;17.37;56.24;100614.03;5038502;28;1340;-55
2023/06/25 02:57:10;;;;;;;;;;;;;;;16.92;56.39;100613.13;5049603;28;1218;-55
2023/06/25 02:59:36;;;;;;;;;;;;;;;16.82;55.51;100607.66;5031048;28;1146;-56
2023/06/25 03:02:01;;;;;;;;;;;;;;;16.71;55.03;100604.91;5037956;28;1099;-55
2023/06/25 03:04:28;;;;;;;;;;;;;;;16.70;54.40;100594.22;5038225;28;1419;-56
2023/06/25 03:06:53;;;;;;;;;;;;;;;16.58;54.71;100597.28;5031505;28;1497;-59
2023/06/25 03:09:19;;;;;;;;;;;;;;;16.65;54.19;100595.06;5048541;28;1913;-59
2023/06/25 03:11:44;;;;;;;;;;;;;;;16.47;54.26;100590.16;5038641;28;1662;-59
2023/06/25 03:14:10;;;;;;;;;;;;;;;16.45;54.28;100589.59;5038273;28;1103;-59
2023/06/25 03:16:36;;;;;;;;;;;;;;;16.38;54.07;100585.22;5058071;28;1099;-59
2023/06/25 03:19:01;;;;;;;;;;;;;;;16.45;53.89;100587.66;5059901;28;1059;-59
2023/06/25 03:21:27;;;;;;;;;;;;;;;17.41;56.09;100593.13;5037516;28;1111;-59
2023/06/25 03:23:54;;;;;;;;;;;;;;;17.39;56.11;100589.00;5033094;28;1316;-56
2023/06/25 03:26:20;;;;;;;;;;;;;;;16.99;55.92;100582.63;5041389;28;1155;-59
2023/06/25 03:28:46;;;;;;;;;;;;;;;16.88;55.46;100595.53;5041497;28;1906;-57
2023/06/25 03:31:11;;;;;;;;;;;;;;;16.76;55.15;100582.94;5042267;28;1124;-57
2023/06/25 03:33:45;;;;;;;;;;;;;;;16.72;54.51;100592.84;5041578;28;930;-59
2023/06/25 03:36:10;;;;;;;;;;;;;;;16.69;54.44;100584.31;5060054;28;1174;-57
2023/06/25 03:38:36;;;;;;;;;;;;;;;16.68;54.23;100580.75;5041997;28;1087;-54
2023/06/25 03:41:02;;;;;;;;;;;;;;;16.46;54.55;100586.56;5041464;28;1339;-56
2023/06/25 03:43:29;;;;;;;;;;;;;;;16.48;54.12;100578.06;5041954;28;1056;-56
2023/06/25 03:45:55;;;;;;;;;;;;;;;16.46;54.29;100574.78;5040313;28;1259;-56
2023/06/25 03:48:20;;;;;;;;;;;;;;;16.41;53.86;100581.09;5059177;28;1910;-56
2023/06/25 03:50:46;;;;;;;;;;;;;;;16.45;53.78;100578.63;5058986;28;1377;-57
2023/06/25 03:53:11;;;;;;;;;;;;;;;17.05;55.77;100582.28;5041272;28;2028;-54
2023/06/25 03:55:38;;;;;;;;;;;;;;;17.46;55.94;100578.53;5041702;28;1151;-55
2023/06/25 03:58:04;;;;;;;;;;;;;;;17.08;55.92;100576.25;5036742;28;1075;-56
2023/06/25 04:00:31;;;;;;;;;;;;;;;16.89;55.77;100575.25;5056911;28;1102;-56
2023/06/25 04:02:56;;;;;;;;;;;;;;;16.81;55.07;100584.03;5039739;28;1059;-56
2023/06/25 04:05:22;;;;;;;;;;;;;;;16.83;54.55;100588.16;5040236;28;1415;-56
2023/06/25 04:07:48;;;;;;;;;;;;;;;16.67;54.71;100590.09;5058825;28;1910;-56
2023/06/25 04:10:14;;;;;;;;;;;;;;;16.60;54.54;100590.38;5033962;28;1341;-56
2023/06/25 04:12:40;;;;;;;;;;;;;;;16.57;54.24;100595.63;5034096;28;1099;-58
2023/06/25 04:15:06;;;;;;;;;;;;;;;16.53;54.17;100600.84;5058482;28;1029;-56
2023/06/25 04:17:31;;;;;;;;;;;;;;;16.45;54.40;100597.84;5059091;28;1027;-55
2023/06/25 04:19:57;;;;;;;;;;;;;;;16.41;54.19;100603.03;5058726;28;1122;-58
2023/06/25 04:22:22;;;;;;;;;;;;;;;16.43;54.06;100607.16;5027992;28;877;-59
2023/06/25 04:24:48;;;;;;;;;;;;;;;16.39;53.94;100600.56;5040310;28;1606;-58
2023/06/25 04:27:13;;;;;;;;;;;;;;;17.31;55.95;100595.94;5039896;28;1923;-58
2023/06/25 04:29:40;;;;;;;;;;;;;;;17.54;56.00;100585.34;5040931;28;1909;-57
2023/06/25 04:32:06;;;;;;;;;;;;;;;17.17;55.96;100592.16;5055435;28;1131;-57
2023/06/25 04:34:33;;;;;;;;;;;;;;;16.91;55.69;100603.25;5038152;28;1218;-57
2023/06/25 04:36:59;;;;;;;;;;;;;;;16.86;55.39;100606.81;5040512;28;1161;-56
2023/06/25 04:39:25;;;;;;;;;;;;;;;16.76;55.08;100615.88;5040375;28;1477;-58
2023/06/25 04:41:50;;;;;;;;;;;;;;;16.73;54.88;100604.63;5040405;28;1080;-57
2023/06/25 04:44:16;;;;;;;;;;;;;;;16.67;54.61;100605.75;5040391;28;1649;-57
2023/06/25 04:46:42;;;;;;;;;;;;;;;16.57;54.52;100590.13;5044909;28;885;-56
2023/06/25 04:49:07;;;;;;;;;;;;;;;16.50;54.65;100592.34;5040336;28;1902;-57
2023/06/25 04:51:34;;;;;;;;;;;;;;;16.50;54.50;100584.13;5027493;28;1100;-59
2023/06/25 04:54:00;;;;;;;;;;;;;;;16.53;56.00;100589.03;5058329;28;1076;-54
2023/06/25 04:56:25;;;;;;;;;;;;;;;16.93;55.00;100576.31;5058237;28;1071;-56
2023/06/25 04:58:50;;;;;;;;;;;;;;;16.32;54.46;100589.06;5047569;28;1158;-58
2023/06/25 05:01:16;;;;;;;;;;;;;;;16.20;53.14;100591.25;5054662;28;1482;-59
2023/06/25 05:03:42;;;;;;;;;;;;;;;16.17;52.19;100586.34;5058149;28;1144;-60
2023/06/25 05:06:07;;;;;;;;;;;;;;;16.01;51.91;100585.53;5058037;28;1191;-60
2023/06/25 05:08:32;;;;;;;;;;;;;;;16.03;51.30;100591.56;5058019;28;1909;-55
2023/06/25 05:10:58;;;;;;;;;;;;;;;15.93;50.79;100592.38;5045206;28;825;-55
2023/06/25 05:13:23;;;;;;;;;;;;;;;15.97;50.62;100585.25;5056265;28;1138;-56
2023/06/25 05:15:49;;;;;;;;;;;;;;;15.97;50.30;100584.44;5058076;28;1144;-56
2023/06/25 05:18:14;;;;;;;;;;;;;;;15.95;50.15;100583.88;5057533;28;1091;-55
2023/06/25 05:20:40;;;;;;;;;;;;;;;15.88;50.18;100570.44;5057879;28;1083;-57
2023/06/25 05:23:06;;;;;;;;;;;;;;;15.87;49.73;100561.38;5051856;28;1068;-56
2023/06/25 05:25:34;;;;;;;;;;;;;;;15.94;49.60;100572.09;5049879;28;1183;-55
2023/06/25 05:28:01;;;;;;;;;;;;;;;15.88;49.56;100567.72;5057086;28;1906;-54
2023/06/25 05:30:33;;;;;;;;;;;;;;;15.94;49.25;100566.59;5044922;28;1115;-55
2023/06/25 05:32:58;;;;;;;;;;;;;;;15.88;49.44;100563.03;5044691;28;1040;-55
2023/06/25 05:35:26;;;;;;;;;;;;;;;15.88;49.05;100556.75;5043942;28;1226;-53
2023/06/25 05:37:51;;;;;;;;;;;;;;;15.95;48.85;100562.78;5049901;28;1016;-56
2023/06/25 05:40:17;;;;;;;;;;;;;;;15.80;49.36;100549.06;5050724;28;1119;-58
2023/06/25 05:42:42;;;;;;;;;;;;;;;15.85;49.00;100551.78;5057008;28;1123;-57
2023/06/25 05:45:08;;;;;;;;;;;;;;;15.83;49.18;100554.00;5056937;28;1067;-55
2023/06/25 05:47:34;;;;;;;;;;;;;;;15.88;48.86;100552.06;5044341;28;1037;-58
2023/06/25 05:49:59;;;;;;;;;;;;;;;15.89;48.93;100558.38;5057184;28;1978;-56
2023/06/25 05:52:25;;;;;;;;;;;;;;;15.86;49.06;100543.28;5057264;28;1060;-55
2023/06/25 05:54:50;;;;;;;;;;;;;;;15.86;49.06;100540.53;5057136;28;1063;-57
2023/06/25 05:57:16;;;;;;;;;;;;;;;15.81;48.91;100546.03;5056484;28;1078;-52
2023/06/25 05:59:41;;;;;;;;;;;;;;;15.86;48.75;100548.75;5056762;28;1087;-57
2023/06/25 06:02:08;;;;;;;;;;;;;;;15.86;48.85;100548.75;5056907;28;1032;-55
2023/06/25 06:04:34;;;;;;;;;;;;;;;15.95;48.61;100535.34;5056360;28;1124;-56
2023/06/25 06:06:59;;;;;;;;;;;;;;;15.79;49.19;100540.00;5043382;28;969;-56
2023/06/25 06:09:25;;;;;;;;;;;;;;;15.87;48.65;100533.97;5056244;28;1980;-54
2023/06/25 06:11:50;;;;;;;;;;;;;;;15.90;48.81;100543.56;5057017;28;1044;-54
2023/06/25 06:14:16;;;;;;;;;;;;;;;15.85;49.00;100530.69;5056809;28;1147;-56
2023/06/25 06:16:41;;;;;;;;;;;;;;;15.89;48.82;100536.44;5056157;28;1079;-58
2023/06/25 06:19:07;;;;;;;;;;;;;;;15.84;48.96;100530.97;5056808;28;1123;-57
2023/06/25 06:21:32;;;;;;;;;;;;;;;15.90;48.56;100521.63;5056499;28;1040;-57
2023/06/25 06:23:58;;;;;;;;;;;;;;;15.84;49.00;100517.25;5043339;28;1048;-57
2023/06/25 06:26:23;;;;;;;;;;;;;;;15.84;49.08;100509.03;5056641;28;1076;-57
2023/06/25 06:28:49;;;;;;;;;;;;;;;15.84;48.95;100518.06;5056732;28;1914;-60
2023/06/25 06:31:14;;;;;;;;;;;;;;;15.92;49.75;100513.94;5056824;28;1092;-56
2023/06/25 06:33:40;;;;;;;;;;;;;;;15.95;49.47;100518.06;5056384;28;1136;-56
2023/06/25 06:36:05;;;;;;;;;;;;;;;15.92;49.38;100511.19;5043153;28;1136;-56
2023/06/25 06:38:31;;;;;;;;;;;;;;;15.89;49.50;100498.88;5038649;28;1099;-51
2023/06/25 06:40:57;;;;;;;;;;;;;;;15.95;49.68;100507.94;5056466;28;1207;-55
2023/06/25 06:43:23;;;;;;;;;;;;;;;15.90;49.38;100502.44;5056547;28;1102;-55
2023/06/25 06:45:48;;;;;;;;;;;;;;;15.94;49.25;100494.50;5055858;28;1130;-56
2023/06/25 06:48:14;;;;;;;;;;;;;;;15.99;49.33;100500.78;5043475;28;1930;-56
2023/06/25 06:50:40;;;;;;;;;;;;;;;15.83;49.86;100493.69;5042424;28;1128;-55
2023/06/25 06:53:05;;;;;;;;;;;;;;;15.88;49.57;100493.69;5056309;28;1187;-57
2023/06/25 06:55:31;;;;;;;;;;;;;;;15.97;49.27;100502.16;5055870;28;1119;-56
2023/06/25 06:57:57;;;;;;;;;;;;;;;15.95;49.02;100507.09;5055712;28;1138;-55
2023/06/25 07:00:22;;;;;;;;;;;;;;;15.93;49.34;100487.34;5042553;28;1024;-53
2023/06/25 07:02:48;;;;;;;;;;;;;;;15.91;49.34;100487.63;5056122;28;1214;-54
2023/06/25 07:05:13;;;;;;;;;;;;;;;15.95;49.39;100485.16;5056192;28;1059;-51
2023/06/25 07:07:39;;;;;;;;;;;;;;;15.98;49.27;100490.09;5055936;28;1128;-51
2023/06/25 07:10:05;;;;;;;;;;;;;;;15.95;49.26;100480.50;5055380;28;1968;-54
2023/06/25 07:12:30;;;;;;;;;;;;;;;15.98;49.29;100485.44;5044279;28;1032;-52
2023/06/25 07:14:56;;;;;;;;;;;;;;;15.98;49.09;100479.94;5036485;28;1160;-48
2023/06/25 07:17:21;;;;;;;;;;;;;;;15.97;49.38;100470.06;5047877;28;1064;-55
2023/06/25 07:19:47;;;;;;;;;;;;;;;15.92;49.11;100464.56;5056037;28;1107;-53
2023/06/25 07:22:13;;;;;;;;;;;;;;;15.98;49.09;100468.97;5055737;28;1198;-48
2023/06/25 07:24:38;;;;;;;;;;;;;;;15.97;49.05;100474.75;5038053;28;1144;-55
2023/06/25 07:27:04;;;;;;;;;;;;;;;15.94;49.21;100473.38;5035287;28;1170;-53
2023/06/25 07:29:29;;;;;;;;;;;;;;;15.97;49.12;100472.00;5054300;28;1989;-54
2023/06/25 07:31:55;;;;;;;;;;;;;;;15.99;49.20;100467.88;5044609;28;1115;-54
2023/06/25 07:34:21;;;;;;;;;;;;;;;15.98;49.29;100468.16;5053793;28;1088;-54
2023/06/25 07:36:46;;;;;;;;;;;;;;;16.02;50.03;100470.06;5044184;28;1107;-55
2023/06/25 07:39:22;;;;;;;;;;;;;;;15.99;49.74;100469.78;5040533;28;1173;-52
2023/06/25 07:41:48;;;;;;;;;;;;;;;16.06;49.60;100460.19;5055674;28;1060;-51
2023/06/25 07:44:13;;;;;;;;;;;;;;;16.06;49.69;100460.19;5031846;28;1261;-53
2023/06/25 07:46:39;;;;;;;;;;;;;;;16.05;49.74;100457.72;5048061;28;1096;-57
2023/06/25 07:49:04;;;;;;;;;;;;;;;16.07;49.69;100459.09;5055138;28;1973;-52
2023/06/25 07:51:30;;;;;;;;;;;;;;;16.11;49.56;100456.59;5043182;28;1064;-50
2023/06/25 07:53:56;;;;;;;;;;;;;;;16.10;49.48;100448.66;5054986;28;1072;-55
2023/06/25 07:56:21;;;;;;;;;;;;;;;16.06;49.37;100451.97;5055713;28;1063;-55
2023/06/25 07:58:47;;;;;;;;;;;;;;;16.05;49.43;100454.97;5049718;28;1147;-55
2023/06/25 08:01:12;;;;;;;;;;;;;;;16.06;49.79;100454.69;5036216;28;1132;-56
2023/06/25 08:03:38;;;;;;;;;;;;;;;16.12;49.46;100451.91;5057938;28;1059;-49
2023/06/25 08:06:03;;;;;;;;;;;;;;;16.06;49.33;100442.88;5059284;28;1147;-54
2023/06/25 08:08:29;;;;;;;;;;;;;;;16.07;49.54;100439.06;5058652;28;1910;-55
2023/06/25 08:10:54;;;;;;;;;;;;;;;16.07;49.64;100445.38;5058986;28;1071;-53
2023/06/25 08:13:21;;;;;;;;;;;;;;;16.10;49.54;100443.16;5053709;28;1103;-51
2023/06/25 08:15:46;;;;;;;;;;;;;;;16.13;49.29;100435.22;5051738;28;1039;-50
2023/06/25 08:18:12;;;;;;;;;;;;;;;16.17;49.16;100435.47;5058659;28;1127;-52
2023/06/25 08:20:37;;;;;;;;;;;;;;;16.19;49.48;100431.34;5058992;28;1144;-54
2023/06/25 08:23:03;;;;;;;;;;;;;;;16.18;49.63;100434.38;5053333;28;1090;-48
2023/06/25 08:25:31;;;;;;;;;;;;;;;16.17;49.48;100427.22;5039005;28;1163;-50
2023/06/25 08:27:56;;;;;;;;;;;;;;;16.16;49.30;100422.84;5057754;28;1194;-51
2023/06/25 08:30:22;;;;;;;;;;;;;;;16.16;49.64;100415.44;5059060;28;1191;-49
2023/06/25 08:32:47;;;;;;;;;;;;;;;16.13;49.58;100416.00;5058756;28;1187;-48
2023/06/25 08:35:13;;;;;;;;;;;;;;;16.18;49.48;100412.41;5058038;28;1052;-50
2023/06/25 08:37:39;;;;;;;;;;;;;;;16.13;49.49;100409.69;5058515;28;1115;-54
2023/06/25 08:40:04;;;;;;;;;;;;;;;16.15;49.57;100411.06;5058726;28;1128;-50
2023/06/25 08:42:30;;;;;;;;;;;;;;;16.20;49.46;100410.22;5058528;28;1317;-53
2023/06/25 08:44:56;;;;;;;;;;;;;;;16.21;49.36;100411.84;5040754;28;1182;-53
2023/06/25 08:47:21;;;;;;;;;;;;;;;16.27;49.47;100409.91;5033816;28;1123;-51
2023/06/25 08:49:49;;;;;;;;;;;;;;;16.21;49.46;100411.84;5020784;28;1898;-53
2023/06/25 08:52:15;;;;;;;;;;;;;;;16.25;49.52;100408.25;5058535;28;1036;-51
2023/06/25 08:54:40;;;;;;;;;;;;;;;16.24;49.41;100395.66;5040957;28;1231;-55
2023/06/25 08:57:07;;;;;;;;;;;;;;;16.29;49.78;100396.75;5058599;28;1048;-50
2023/06/25 08:59:32;;;;;;;;;;;;;;;16.32;49.70;100401.69;5053978;28;1139;-52
2023/06/25 09:01:58;;;;;;;;;;;;;;;16.25;49.65;100402.78;5058146;28;1219;-48
2023/06/25 09:04:23;;;;;;;;;;;;;;;16.20;49.76;100388.25;5057860;28;1055;-48
2023/06/25 09:06:49;;;;;;;;;;;;;;;16.33;49.25;100398.66;5057763;28;1056;-51
2023/06/25 09:09:14;;;;;;;;;;;;;;;16.28;49.66;100389.63;5057761;28;1910;-50
2023/06/25 09:11:43;;;;;;;;;;;;;;;16.30;49.43;100388.25;5052479;28;1083;-53
2023/06/25 09:14:08;;;;;;;;;;;;;;;16.35;49.48;100390.94;5049562;28;1004;-49
2023/06/25 09:16:44;;;;;;;;;;;;;;;16.25;49.61;100380.84;5057679;28;1083;-51
2023/06/25 09:19:15;;;;;;;;;;;;;;;16.30;49.74;100388.25;5057906;28;1067;-53
2023/06/25 09:21:41;;;;;;;;;;;;;;;16.33;49.56;100381.38;5051032;28;1175;-51
2023/06/25 09:24:19;;;;;;;;;;;;;;;16.27;49.72;100383.31;5035677;28;1219;-51
2023/06/25 09:27:02;;;;;;;;;;;;;;;16.19;49.80;100378.41;5046788;28;1134;-55
2023/06/25 09:29:34;;;;;;;;;;;;;;;16.35;49.37;100379.97;5057459;28;1962;-53
2023/06/25 09:32:05;;;;;;;;;;;;;;;16.38;49.31;100384.91;5057147;28;1120;-53
2023/06/25 09:34:30;;;;;;;;;;;;;;;16.34;49.55;100375.59;5051202;28;1215;-50
2023/06/25 09:36:56;;;;;;;;;;;;;;;16.37;49.46;100382.44;5055075;28;954;-50
2023/06/25 09:39:21;;;;;;;;;;;;;;;16.40;49.65;100374.47;5057480;28;1164;-50
2023/06/25 09:41:47;;;;;;;;;;;;;;;16.40;49.62;100376.41;5057541;28;1155;-51
2023/06/25 09:44:12;;;;;;;;;;;;;;;16.36;49.51;100367.91;5057234;28;1112;-51
2023/06/25 09:46:38;;;;;;;;;;;;;;;16.28;49.88;100363.00;5039177;28;1238;-49
2023/06/25 09:49:04;;;;;;;;;;;;;;;16.34;49.90;100361.88;5048370;28;1902;-50
2023/06/25 09:51:48;;;;;;;;;;;;;;;16.34;49.76;100356.38;5050364;28;1099;-52
2023/06/25 09:54:15;;;;;;;;;;;;;;;16.26;49.79;100359.72;5057300;28;1132;-49
2023/06/25 09:56:41;;;;;;;;;;;;;;;16.40;49.47;100355.25;5056819;28;1134;-51
2023/06/25 09:59:06;;;;;;;;;;;;;;;16.37;49.69;100361.31;5038931;28;1420;-49
2023/06/25 10:01:32;;;;;;;;;;;;;;;16.39;49.88;100350.06;5023503;28;1219;-48
2023/06/25 10:03:57;;;;;;;;;;;;;;;16.43;49.48;100354.69;5045857;28;1102;-48
2023/06/25 10:06:23;;;;;;;;;;;;;;;16.46;49.46;100358.78;5056799;28;1060;-55
2023/06/25 10:08:50;;;;;;;;;;;;;;;16.40;49.53;100349.75;5056684;28;1984;-51
2023/06/25 10:11:16;;;;;;;;;;;;;;;16.38;49.56;100351.97;5043239;28;1094;-51
2023/06/25 10:13:41;;;;;;;;;;;;;;;16.45;49.50;100343.41;5056615;28;1171;-51
2023/06/25 10:16:07;;;;;;;;;;;;;;;16.48;49.22;100344.78;5054736;28;1112;-52
2023/06/25 10:18:39;;;;;;;;;;;;;;;16.38;49.64;100337.44;5037035;28;1204;-50
2023/06/25 10:21:04;;;;;;;;;;;;;;;16.41;49.45;100340.44;5052671;28;1017;-49
2023/06/25 10:23:30;;;;;;;;;;;;;;;16.40;49.25;100333.31;5056074;28;1168;-51
2023/06/25 10:25:56;;;;;;;;;;;;;;;16.46;49.31;100341.50;5039885;28;1043;-49
2023/06/25 10:28:37;;;;;;;;;;;;;;;16.42;49.45;100335.75;5046511;28;1973;-54
2023/06/25 10:31:12;;;;;;;;;;;;;;;16.40;49.50;100340.72;5042524;28;1110;-50
2023/06/25 10:33:38;;;;;;;;;;;;;;;16.41;49.34;100331.38;5056702;28;1140;-52
2023/06/25 10:36:05;;;;;;;;;;;;;;;16.41;49.52;100323.97;5055844;28;1507;-49
2023/06/25 10:38:31;;;;;;;;;;;;;;;16.43;49.62;100327.22;5055942;28;1175;-51
2023/06/25 10:40:56;;;;;;;;;;;;;;;16.39;49.70;100328.09;5056119;28;1059;-50
2023/06/25 10:43:22;;;;;;;;;;;;;;;16.42;49.62;100325.63;5055821;28;1142;-50
2023/06/25 10:45:48;;;;;;;;;;;;;;;16.35;49.51;100319.59;5056609;28;1200;-48
2023/06/25 10:48:14;;;;;;;;;;;;;;;16.46;49.52;100328.59;5056105;28;1983;-52
2023/06/25 10:50:39;;;;;;;;;;;;;;;16.37;49.50;100325.63;5037094;28;1098;-50
2023/06/25 10:53:12;;;;;;;;;;;;;;;16.43;49.31;100321.75;5048618;28;1095;-52
2023/06/25 10:55:38;;;;;;;;;;;;;;;16.47;49.47;100321.19;5056257;28;1032;-50
2023/06/25 10:58:03;;;;;;;;;;;;;;;16.45;49.46;100315.97;5055842;28;1021;-52
2023/06/25 11:00:29;;;;;;;;;;;;;;;16.42;49.63;100328.38;5049069;28;974;-49
2023/06/25 11:02:54;;;;;;;;;;;;;;;16.43;49.56;100323.69;5035870;28;1164;-50
2023/06/25 11:05:21;;;;;;;;;;;;;;;16.46;49.71;100320.38;5042602;28;1509;-52
2023/06/25 11:07:53;;;;;;;;;;;;;;;16.45;49.50;100312.41;5056154;28;1146;-50
2023/06/25 11:10:20;;;;;;;;;;;;;;;16.45;49.67;100317.91;5043525;28;1919;-48
2023/06/25 11:12:46;;;;;;;;;;;;;;;16.39;49.50;100309.69;5037020;28;1056;-51
2023/06/25 11:15:11;;;;;;;;;;;;;;;16.41;49.74;100313.00;5043758;28;1092;-48
2023/06/25 11:17:37;;;;;;;;;;;;;;;16.45;49.58;100312.41;5055630;28;1048;-51
2023/06/25 11:20:02;;;;;;;;;;;;;;;16.50;49.66;100315.13;5056120;28;1199;-52
2023/06/25 11:22:28;;;;;;;;;;;;;;;16.46;49.63;100306.66;5056281;28;1150;-54
2023/06/25 11:24:54;;;;;;;;;;;;;;;16.51;49.64;100305.78;5048412;28;1096;-47
2023/06/25 11:27:26;;;;;;;;;;;;;;;16.49;49.46;100299.78;5036006;28;1234;-47
2023/06/25 11:29:53;;;;;;;;;;;;;;;16.45;49.83;100296.75;5036063;28;1905;-48
2023/06/25 11:32:22;;;;;;;;;;;;;;;16.47;49.63;100291.00;5035973;28;1112;-48
2023/06/25 11:34:48;;;;;;;;;;;;;;;16.52;49.53;100282.72;5036060;28;1187;-49
2023/06/25 11:37:14;;;;;;;;;;;;;;;16.53;49.41;100290.69;5032499;28;1196;-51
2023/06/25 11:39:46;;;;;;;;;;;;;;;16.52;49.53;100291.81;5050709;28;1114;-54
2023/06/25 11:42:12;;;;;;;;;;;;;;;16.62;49.29;100290.91;5056361;28;1092;-48
2023/06/25 11:44:38;;;;;;;;;;;;;;;16.49;50.36;100270.38;5059511;28;1155;-47
2023/06/25 11:47:03;;;;;;;;;;;;;;;16.56;50.17;100283.81;5046316;28;1183;-47
2023/06/25 11:49:29;;;;;;;;;;;;;;;16.56;49.78;100286.53;5048652;28;1977;-50
2023/06/25 11:51:54;;;;;;;;;;;;;;;16.55;49.72;100287.63;5043131;28;1060;-50
2023/06/25 11:54:20;;;;;;;;;;;;;;;16.56;49.32;100281.06;5059093;28;1091;-48
2023/06/25 11:56:45;;;;;;;;;;;;;;;16.53;49.35;100289.88;5059254;28;1048;-49
2023/06/25 11:59:11;;;;;;;;;;;;;;;16.54;49.18;100277.78;5059329;28;1447;-49
2023/06/25 12:01:36;;;;;;;;;;;;;;;16.50;49.15;100287.69;5055311;28;1056;-52
2023/06/25 12:04:02;;;;;;;;;;;;;;;16.56;49.18;100278.31;5049688;28;1053;-46
2023/06/25 12:06:28;;;;;;;;;;;;;;;16.53;49.04;100271.47;5058516;28;1091;-51
2023/06/25 12:08:53;;;;;;;;;;;;;;;16.55;48.99;100279.41;5059240;28;1889;-46
2023/06/25 12:11:19;;;;;;;;;;;;;;;16.50;49.15;100274.78;5059142;28;1090;-46
2023/06/25 12:13:44;;;;;;;;;;;;;;;16.47;49.22;100291.00;5049696;28;901;-47
2023/06/25 12:16:11;;;;;;;;;;;;;;;16.49;48.97;100283.31;5054038;28;1115;-46
2023/06/25 12:18:37;;;;;;;;;;;;;;;16.50;48.84;100287.69;5059118;28;1273;-47
2023/06/25 12:21:03;;;;;;;;;;;;;;;16.51;48.83;100286.56;5058827;28;1083;-44
2023/06/25 12:23:28;;;;;;;;;;;;;;;16.44;48.87;100275.94;5058521;28;1191;-44
2023/06/25 12:25:54;;;;;;;;;;;;;;;16.52;48.69;100260.78;5056357;28;1092;-48
2023/06/25 12:28:20;;;;;;;;;;;;;;;16.41;48.72;100258.13;5038869;28;1894;-47
2023/06/25 12:30:45;;;;;;;;;;;;;;;16.38;48.46;100277.91;5054367;28;1064;-45
2023/06/25 12:33:11;;;;;;;;;;;;;;;16.32;48.89;100298.22;5058804;28;1199;-46
2023/06/25 12:35:36;;;;;;;;;;;;;;;16.43;48.61;100302.53;5058553;28;1182;-48
2023/06/25 12:38:02;;;;;;;;;;;;;;;16.33;48.62;100291.63;5049245;28;849;-46
2023/06/25 12:40:27;;;;;;;;;;;;;;;16.34;48.59;100274.09;5040551;28;1229;-49
2023/06/25 12:42:55;;;;;;;;;;;;;;;16.32;48.49;100275.47;5058694;28;1055;-45